ADDS METAR Data INFO
IDs: Format: Raw Decoded Include TAF

Data at: 2251 UTC 22 Jun 2018

KOLU 222156Z AUTO 12007KT 10SM BKN045 21/16 A2987 RMK AO2 SLP111 T02110161
KOLU 222056Z AUTO 10006KT 10SM OVC039 21/16 A2989 RMK AO2 SLP119 T02110156 57006
KOLU 221956Z AUTO 09011KT 10SM FEW030 OVC039 21/16 A2990 RMK AO2 SLP119 T02110156
KOLU 221856Z AUTO 08009G15KT 10SM FEW025 BKN035 22/16 A2991 RMK AO2 SLP123 T02220161
KOLU 221815Z AUTO 08010G18KT 10SM SCT027 OVC035 22/16 A2991 RMK AO2
KOLU 221756Z AUTO 06010KT 10SM BKN027 BKN033 22/16 A2991 RMK AO2 SLP124 T02170156 10222 20150 56009
KOLU 221751Z AUTO 05009KT 10SM BKN025 BKN033 21/16 A2991 RMK AO2
KOLU 221719Z AUTO 07010KT 10SM SCT023 OVC033 21/16 A2992 RMK AO2
KOLU 221656Z AUTO 05008KT 10SM BKN021 OVC055 21/16 A2994 RMK AO2 SLP133 T02060156
KOLU 221556Z AUTO 04012G15KT 10SM BKN018 BKN024 20/16 A2994 RMK AO2 SLP135 T02000156
KOLU 221506Z AUTO 03008KT 10SM BKN015 OVC047 19/15 A2995 RMK AO2
KOLU 221456Z AUTO 06010KT 10SM SCT013 BKN047 18/14 A2994 RMK AO2 SLP136 T01830144 53001
KOLU 221415Z AUTO 04012KT 10SM SCT011 OVC043 17/14 A2994 RMK AO2
KOLU 221356Z AUTO 04010G18KT 10SM BKN011 OVC041 17/14 A2993 RMK AO2 SLP134 T01670144
KOLU 221256Z AUTO 10SM BKN013 OVC023 16/14 A2994 RMK AO2 SLP136 T01560139 $
KOLU 221156Z AUTO 10SM OVC025 15/13 A2993 RMK AO2 SLP133 T01500133 10167 20144 53006 $
KOLU 221106Z AUTO 30005KT 10SM BKN029 14/14 A2992 RMK AO2
KOLU 221056Z AUTO 32005KT 10SM SCT029 14/13 A2992 RMK AO2 SLP131 T01440133
KOLU 220956Z AUTO 02004KT 10SM CLR 15/14 A2989 RMK AO2 SLP121 T01500139
KOLU 220856Z AUTO 01006KT 10SM CLR 16/14 A2991 RMK AO2 SLP127 T01560144 58012 TSNO
KOLU 220810Z AUTO 33006KT 10SM SCT020 OVC045 16/15 A2992 RMK AO2
KOLU 220756Z AUTO 31005KT 10SM BKN020 OVC045 16/14 A2993 RMK AO2 SLP132 T01610144
KOLU 220744Z AUTO 33006KT 10SM BKN020 OVC037 16/14 A2994 RMK AO2
KOLU 220656Z AUTO 02010KT 10SM OVC033 17/14 A2993 RMK AO2 SLP130 T01670144
KOLU 220636Z AUTO 01009KT 10SM FEW018 SCT026 OVC033 17/14 A2994 RMK AO2
KOLU 220556Z AUTO 36007KT 10SM OVC019 17/14 A2995 RMK AO2 SLP138 T01670144 10172 20167 401890150 53007
KOLU 220509Z AUTO 01007KT 10SM SCT013 OVC019 17/15 A2993 RMK AO2
KOLU 220456Z AUTO 02008KT 10SM BKN013 OVC019 17/15 A2993 RMK AO2 SLP133 T01670150
KOLU 220443Z AUTO 02006KT 10SM OVC013 17/16 A2993 RMK AO2
KOLU 220356Z AUTO 34006KT 10SM OVC019 17/16 A2994 RMK AO2 SLP133 T01670156
KOLU 220316Z AUTO 36006KT 9SM OVC017 17/16 A2993 RMK AO2
KOLU 220256Z AUTO 01006KT 7SM OVC014 17/16 A2992 RMK AO2 SLP131 T01720156 51008
KOLU 220229Z AUTO 36008KT 10SM BKN014 OVC019 17/16 A2992 RMK AO2
KOLU 220156Z AUTO 01009G15KT 10SM OVC021 17/16 A2992 RMK AO2 SLP129 T01720156
KOLU 220129Z AUTO 35009KT 10SM BKN015 OVC021 17/16 A2992 RMK AO2
KOLU 220056Z AUTO 34011G19KT 10SM BKN010 OVC015 17/16 A2991 RMK AO2 CIG 008V013 SLP127 T01720161
KOLU 220025Z AUTO 34010G18KT 10SM OVC010 17/16 A2990 RMK AO2
KOLU 212356Z AUTO 35011G17KT 10SM OVC008 17/16 A2990 RMK AO2 PK WND 35026/2321 SLP123 T01670156 10189 20167 53002
KOLU 212352Z AUTO 36013G17KT 10SM OVC008 17/16 A2990 RMK AO2 PK WND 35026/2321
KOLU 212256Z AUTO 34012G26KT 10SM OVC010 17/16 A2989 RMK AO2 PK WND 35026/2249 CIG 006V011 SLP121 T01720156
KOLU 212216Z AUTO 33011G17KT 5SM BR BKN008 OVC014 17/16 A2989 RMK AO2 CIG 005V011
KOLU 212156Z AUTO 35013G20KT 4SM BR BKN013 OVC018 17/16 A2989 RMK AO2 PK WND 36029/2136 SLP120 T01720156
KOLU 212148Z AUTO 35011KT 10SM BKN013 BKN023 OVC032 18/16 A2989 RMK AO2 PK WND 36029/2136
KOLU 212056Z AUTO 35010G23KT 9SM OVC016 18/16 A2988 RMK AO2 PK WND 35027/2023 SLP117 T01780156 53013
KOLU 211956Z AUTO 36012G20KT 10SM OVC018 19/16 A2987 RMK AO2 PK WND 36027/1929 SLP111 T01890156
KOLU 211919Z AUTO 36016G27KT 10SM OVC018 19/16 A2986 RMK AO2 PK WND 36027/1917
KOLU 211856Z AUTO 36017G28KT 10SM OVC014 19/16 A2985 RMK AO2 PK WND 36029/1820 SLP105 T01890161
KOLU 211756Z AUTO 35019G29KT 10SM OVC012 18/16 A2984 RMK AO2 PK WND 33030/1657 SLP103 T01780161 10189 20156 53014
KOLU 211656Z AUTO 34022G29KT 8SM OVC014 18/16 A2982 RMK AO2 PK WND 33037/1600 SLP096 T01830161
KOLU 211631Z AUTO 34020G33KT 10SM OVC014 18/16 A2982 RMK AO2 PK WND 33037/1600
KOLU 211556Z AUTO 33021G38KT 10SM OVC016 19/16 A2981 RMK AO2 PK WND 32038/1552 SLP090 T01890156
KOLU 211456Z AUTO 32023G31KT 10SM OVC014 17/15 A2980 RMK AO2 PK WND 33035/1445 SLP088 T01720150 53010
KOLU 211356Z AUTO 32026G33KT 10SM OVC014 17/14 A2978 RMK AO2 PK WND 32035/1314 SLP082 T01670144
KOLU 211256Z AUTO 31026G34KT 8SM BKN012 OVC017 16/14 A2977 RMK AO2 PK WND 32037/1229 SLP077 T01610144
KOLU 211201Z AUTO 30024G32KT 3SM BR OVC010 16/14 A2977 RMK AO2 PK WND 30030/1159 CIG 007V013
KOLU 211156Z AUTO 30027G32KT 1 3/4SM BR OVC010 16/14 A2977 RMK AO2 PK WND 29034/1142 CIG 007V013 SLP077 60001 70001 T01560144 10156 20150 56013
KOLU 211125Z AUTO 30021G30KT 1SM BR SCT009 OVC013 16/14 A2978 RMK AO2 PK WND 29030/1119
KOLU 211117Z AUTO 29021G29KT 1 1/4SM BR OVC013 16/14 A2978 RMK AO2 PK WND 29029/1111
KOLU 211107Z AUTO 30021G27KT 1 3/4SM BR BKN016 BKN022 OVC028 16/14 A2978 RMK AO2 PK WND 29027/1107
KOLU 211056Z AUTO 30023G27KT 4SM BR SCT016 BKN022 OVC028 16/14 A2977 RMK AO2 PK WND 29028/1036 SLP079 P0001 T01560139